sensor_id;sensor_type;location;lat;lon;timestamp;temperature;humidity
66013;DHT22;52783;50.502;8.190;2022-12-05T00:00:51;2.40;99.90
66013;DHT22;52783;50.502;8.190;2022-12-05T00:03:17;2.40;99.90
66013;DHT22;52783;50.502;8.190;2022-12-05T00:05:43;2.50;99.90
66013;DHT22;52783;50.502;8.190;2022-12-05T00:08:09;2.50;99.90
66013;DHT22;52783;50.502;8.190;2022-12-05T00:10:38;2.50;99.90
66013;DHT22;52783;50.502;8.190;2022-12-05T00:13:04;2.40;99.90
66013;DHT22;52783;50.502;8.190;2022-12-05T00:15:30;2.50;99.90
66013;DHT22;52783;50.502;8.190;2022-12-05T00:17:56;2.40;99.90
66013;DHT22;52783;50.502;8.190;2022-12-05T00:20:21;2.50;99.90
66013;DHT22;52783;50.502;8.190;2022-12-05T00:22:47;2.50;99.90
66013;DHT22;52783;50.502;8.190;2022-12-05T00:25:12;2.40;99.90
66013;DHT22;52783;50.502;8.190;2022-12-05T00:27:38;2.30;99.90
66013;DHT22;52783;50.502;8.190;2022-12-05T00:30:04;2.20;99.90
66013;DHT22;52783;50.502;8.190;2022-12-05T00:32:32;2.20;99.90
66013;DHT22;52783;50.502;8.190;2022-12-05T00:34:58;2.20;99.90
66013;DHT22;52783;50.502;8.190;2022-12-05T00:37:23;2.30;99.90
66013;DHT22;52783;50.502;8.190;2022-12-05T00:39:49;2.40;99.90
66013;DHT22;52783;50.502;8.190;2022-12-05T00:42:15;2.40;99.90
66013;DHT22;52783;50.502;8.190;2022-12-05T00:44:41;2.30;99.90
66013;DHT22;52783;50.502;8.190;2022-12-05T00:47:06;2.30;99.90
66013;DHT22;52783;50.502;8.190;2022-12-05T00:49:32;2.30;99.90
66013;DHT22;52783;50.502;8.190;2022-12-05T00:51:58;2.20;99.90
66013;DHT22;52783;50.502;8.190;2022-12-05T00:54:23;2.20;99.90
66013;DHT22;52783;50.502;8.190;2022-12-05T00:56:49;2.20;99.90
66013;DHT22;52783;50.502;8.190;2022-12-05T00:59:18;2.30;99.90
66013;DHT22;52783;50.502;8.190;2022-12-05T01:01:45;2.30;99.90
66013;DHT22;52783;50.502;8.190;2022-12-05T01:04:22;2.30;99.90
66013;DHT22;52783;50.502;8.190;2022-12-05T01:06:49;2.40;99.90
66013;DHT22;52783;50.502;8.190;2022-12-05T01:09:18;2.40;99.90
66013;DHT22;52783;50.502;8.190;2022-12-05T01:11:44;2.40;99.90
66013;DHT22;52783;50.502;8.190;2022-12-05T01:14:12;2.40;99.90
66013;DHT22;52783;50.502;8.190;2022-12-05T01:16:40;2.40;99.90
66013;DHT22;52783;50.502;8.190;2022-12-05T01:19:12;2.40;99.90
66013;DHT22;52783;50.502;8.190;2022-12-05T01:21:38;2.30;99.90
66013;DHT22;52783;50.502;8.190;2022-12-05T01:24:03;2.30;99.90
66013;DHT22;52783;50.502;8.190;2022-12-05T01:26:29;2.30;99.90
66013;DHT22;52783;50.502;8.190;2022-12-05T01:28:55;2.30;99.90
66013;DHT22;52783;50.502;8.190;2022-12-05T01:33:46;2.30;99.90
66013;DHT22;52783;50.502;8.190;2022-12-05T01:36:12;2.30;99.90
66013;DHT22;52783;50.502;8.190;2022-12-05T01:38:39;2.40;99.90
66013;DHT22;52783;50.502;8.190;2022-12-05T01:41:06;2.30;99.90
66013;DHT22;52783;50.502;8.190;2022-12-05T01:43:32;2.30;99.90
66013;DHT22;52783;50.502;8.190;2022-12-05T01:45:58;2.20;99.90
66013;DHT22;52783;50.502;8.190;2022-12-05T01:48:32;2.20;99.90
66013;DHT22;52783;50.502;8.190;2022-12-05T01:50:59;2.20;99.90
66013;DHT22;52783;50.502;8.190;2022-12-05T01:53:26;2.20;99.90
66013;DHT22;52783;50.502;8.190;2022-12-05T01:55:53;2.20;99.90
66013;DHT22;52783;50.502;8.190;2022-12-05T01:58:19;2.20;99.90
66013;DHT22;52783;50.502;8.190;2022-12-05T02:00:46;2.20;99.90
66013;DHT22;52783;50.502;8.190;2022-12-05T02:03:19;2.10;99.90
66013;DHT22;52783;50.502;8.190;2022-12-05T02:05:50;2.20;99.90
66013;DHT22;52783;50.502;8.190;2022-12-05T02:08:17;2.20;99.90
66013;DHT22;52783;50.502;8.190;2022-12-05T02:10:49;2.10;99.90
66013;DHT22;52783;50.502;8.190;2022-12-05T02:22:42;2.10;99.90
66013;DHT22;52783;50.502;8.190;2022-12-05T02:30:23;2.10;99.90
66013;DHT22;52783;50.502;8.190;2022-12-05T02:33:20;2.20;99.90
66013;DHT22;52783;50.502;8.190;2022-12-05T02:39:20;2.20;99.90
66013;DHT22;52783;50.502;8.190;2022-12-05T02:44:46;2.30;99.90
66013;DHT22;52783;50.502;8.190;2022-12-05T02:47:18;2.30;99.90
66013;DHT22;52783;50.502;8.190;2022-12-05T02:49:46;2.30;99.90
66013;DHT22;52783;50.502;8.190;2022-12-05T02:52:14;2.20;99.90
66013;DHT22;52783;50.502;8.190;2022-12-05T02:54:43;2.20;99.90
66013;DHT22;52783;50.502;8.190;2022-12-05T02:57:11;2.30;99.90
66013;DHT22;52783;50.502;8.190;2022-12-05T02:59:37;2.20;99.90
66013;DHT22;52783;50.502;8.190;2022-12-05T03:02:03;2.20;99.90
66013;DHT22;52783;50.502;8.190;2022-12-05T03:04:30;2.20;99.90
66013;DHT22;52783;50.502;8.190;2022-12-05T03:07:03;2.20;99.90
66013;DHT22;52783;50.502;8.190;2022-12-05T03:09:45;2.20;99.90
66013;DHT22;52783;50.502;8.190;2022-12-05T03:12:18;2.20;99.90
66013;DHT22;52783;50.502;8.190;2022-12-05T03:15:04;2.20;99.90
66013;DHT22;52783;50.502;8.190;2022-12-05T03:17:38;2.20;99.90
66013;DHT22;52783;50.502;8.190;2022-12-05T03:20:10;2.10;99.90
66013;DHT22;52783;50.502;8.190;2022-12-05T03:22:45;2.20;99.90
66013;DHT22;52783;50.502;8.190;2022-12-05T03:25:13;2.30;99.90
66013;DHT22;52783;50.502;8.190;2022-12-05T03:27:58;2.30;99.90
66013;DHT22;52783;50.502;8.190;2022-12-05T03:30:24;2.30;99.90
66013;DHT22;52783;50.502;8.190;2022-12-05T03:32:57;2.30;99.90
66013;DHT22;52783;50.502;8.190;2022-12-05T03:38:20;2.30;99.90
66013;DHT22;52783;50.502;8.190;2022-12-05T03:41:06;2.30;99.90
66013;DHT22;52783;50.502;8.190;2022-12-05T03:43:55;2.30;99.90
66013;DHT22;52783;50.502;8.190;2022-12-05T03:46:37;2.40;99.90
66013;DHT22;52783;50.502;8.190;2022-12-05T03:51:54;2.40;99.90
66013;DHT22;52783;50.502;8.190;2022-12-05T03:54:28;2.40;99.90
66013;DHT22;52783;50.502;8.190;2022-12-05T03:57:04;2.40;99.90
66013;DHT22;52783;50.502;8.190;2022-12-05T03:59:45;2.30;99.90
66013;DHT22;52783;50.502;8.190;2022-12-05T04:02:19;2.30;99.90
66013;DHT22;52783;50.502;8.190;2022-12-05T04:05:08;2.30;99.90
66013;DHT22;52783;50.502;8.190;2022-12-05T04:07:37;2.40;99.90
66013;DHT22;52783;50.502;8.190;2022-12-05T04:10:11;2.30;99.90
66013;DHT22;52783;50.502;8.190;2022-12-05T04:12:39;2.30;99.90
66013;DHT22;52783;50.502;8.190;2022-12-05T04:15:20;2.30;99.90
66013;DHT22;52783;50.502;8.190;2022-12-05T04:18:00;2.30;99.90
66013;DHT22;52783;50.502;8.190;2022-12-05T04:20:29;2.20;99.90
66013;DHT22;52783;50.502;8.190;2022-12-05T04:23:15;2.30;99.90
66013;DHT22;52783;50.502;8.190;2022-12-05T04:26:12;2.30;99.90
66013;DHT22;52783;50.502;8.190;2022-12-05T04:28:51;2.30;99.90
66013;DHT22;52783;50.502;8.190;2022-12-05T04:31:25;2.30;99.90
66013;DHT22;52783;50.502;8.190;2022-12-05T04:33:58;2.20;99.90
66013;DHT22;52783;50.502;8.190;2022-12-05T04:36:32;2.30;99.90
66013;DHT22;52783;50.502;8.190;2022-12-05T04:39:18;2.20;99.90
66013;DHT22;52783;50.502;8.190;2022-12-05T04:41:49;2.30;99.90
66013;DHT22;52783;50.502;8.190;2022-12-05T04:44:21;2.30;99.90
66013;DHT22;52783;50.502;8.190;2022-12-05T04:46:49;2.30;99.90
66013;DHT22;52783;50.502;8.190;2022-12-05T04:49:20;2.30;99.90
66013;DHT22;52783;50.502;8.190;2022-12-05T04:51:50;2.30;99.90
66013;DHT22;52783;50.502;8.190;2022-12-05T04:54:22;2.20;99.90
66013;DHT22;52783;50.502;8.190;2022-12-05T04:56:52;2.30;99.90
66013;DHT22;52783;50.502;8.190;2022-12-05T04:59:19;2.30;99.90
66013;DHT22;52783;50.502;8.190;2022-12-05T05:01:50;2.30;99.90
66013;DHT22;52783;50.502;8.190;2022-12-05T05:04:35;2.20;99.90
66013;DHT22;52783;50.502;8.190;2022-12-05T05:07:07;2.30;99.90
66013;DHT22;52783;50.502;8.190;2022-12-05T05:09:34;2.30;99.90
66013;DHT22;52783;50.502;8.190;2022-12-05T05:12:00;2.20;99.90
66013;DHT22;52783;50.502;8.190;2022-12-05T05:14:25;2.30;99.90
66013;DHT22;52783;50.502;8.190;2022-12-05T05:16:51;2.30;99.90
66013;DHT22;52783;50.502;8.190;2022-12-05T05:22:09;2.40;99.90
66013;DHT22;52783;50.502;8.190;2022-12-05T05:24:35;2.30;99.90
66013;DHT22;52783;50.502;8.190;2022-12-05T05:27:00;2.30;99.90
66013;DHT22;52783;50.502;8.190;2022-12-05T05:29:26;2.30;99.90
66013;DHT22;52783;50.502;8.190;2022-12-05T05:31:51;2.30;99.90
66013;DHT22;52783;50.502;8.190;2022-12-05T05:34:17;2.30;99.90
66013;DHT22;52783;50.502;8.190;2022-12-05T05:36:42;2.40;99.90
66013;DHT22;52783;50.502;8.190;2022-12-05T05:39:12;2.40;99.90
66013;DHT22;52783;50.502;8.190;2022-12-05T05:41:38;2.40;99.90
66013;DHT22;52783;50.502;8.190;2022-12-05T05:44:03;2.40;99.90
66013;DHT22;52783;50.502;8.190;2022-12-05T05:46:31;2.30;99.90
66013;DHT22;52783;50.502;8.190;2022-12-05T05:48:57;2.30;99.90
66013;DHT22;52783;50.502;8.190;2022-12-05T05:51:23;2.40;99.90
66013;DHT22;52783;50.502;8.190;2022-12-05T05:53:52;2.40;99.90
66013;DHT22;52783;50.502;8.190;2022-12-05T05:56:18;2.30;99.90
66013;DHT22;52783;50.502;8.190;2022-12-05T05:58:45;2.40;99.90
66013;DHT22;52783;50.502;8.190;2022-12-05T06:01:16;2.40;99.90
66013;DHT22;52783;50.502;8.190;2022-12-05T06:03:43;2.40;99.90
66013;DHT22;52783;50.502;8.190;2022-12-05T06:06:11;2.40;99.90
66013;DHT22;52783;50.502;8.190;2022-12-05T06:08:38;2.40;99.90
66013;DHT22;52783;50.502;8.190;2022-12-05T06:11:08;2.40;99.90
66013;DHT22;52783;50.502;8.190;2022-12-05T06:13:35;2.40;99.90
66013;DHT22;52783;50.502;8.190;2022-12-05T06:16:01;2.40;99.90
66013;DHT22;52783;50.502;8.190;2022-12-05T06:18:26;2.40;99.90
66013;DHT22;52783;50.502;8.190;2022-12-05T06:20:56;2.30;99.90
66013;DHT22;52783;50.502;8.190;2022-12-05T06:23:23;2.40;99.90
66013;DHT22;52783;50.502;8.190;2022-12-05T06:25:50;2.30;99.90
66013;DHT22;52783;50.502;8.190;2022-12-05T06:28:16;2.30;99.90
66013;DHT22;52783;50.502;8.190;2022-12-05T06:30:42;2.30;99.90
66013;DHT22;52783;50.502;8.190;2022-12-05T06:33:08;2.30;99.90
66013;DHT22;52783;50.502;8.190;2022-12-05T06:35:34;2.40;99.90
66013;DHT22;52783;50.502;8.190;2022-12-05T06:37:59;2.40;99.90
66013;DHT22;52783;50.502;8.190;2022-12-05T06:40:25;2.30;99.90
66013;DHT22;52783;50.502;8.190;2022-12-05T06:42:51;2.30;99.90
66013;DHT22;52783;50.502;8.190;2022-12-05T06:45:16;2.20;99.90
66013;DHT22;52783;50.502;8.190;2022-12-05T06:47:42;2.20;99.90
66013;DHT22;52783;50.502;8.190;2022-12-05T06:50:08;2.30;99.90
66013;DHT22;52783;50.502;8.190;2022-12-05T06:52:33;2.30;99.90
66013;DHT22;52783;50.502;8.190;2022-12-05T06:54:59;2.30;99.90
66013;DHT22;52783;50.502;8.190;2022-12-05T06:57:27;2.20;99.90
66013;DHT22;52783;50.502;8.190;2022-12-05T06:59:52;2.20;99.90
66013;DHT22;52783;50.502;8.190;2022-12-05T07:02:38;2.30;99.90
66013;DHT22;52783;50.502;8.190;2022-12-05T07:05:06;2.20;99.90
66013;DHT22;52783;50.502;8.190;2022-12-05T07:07:32;2.20;99.90
66013;DHT22;52783;50.502;8.190;2022-12-05T07:09:57;2.20;99.90
66013;DHT22;52783;50.502;8.190;2022-12-05T07:12:23;2.10;99.90
66013;DHT22;52783;50.502;8.190;2022-12-05T07:14:48;2.10;99.90
66013;DHT22;52783;50.502;8.190;2022-12-05T07:17:15;2.10;99.90
66013;DHT22;52783;50.502;8.190;2022-12-05T07:19:40;2.10;99.90
66013;DHT22;52783;50.502;8.190;2022-12-05T07:22:06;2.10;99.90
66013;DHT22;52783;50.502;8.190;2022-12-05T07:24:31;2.10;99.90
66013;DHT22;52783;50.502;8.190;2022-12-05T07:26:57;2.10;99.90
66013;DHT22;52783;50.502;8.190;2022-12-05T07:29:22;2.10;99.90
66013;DHT22;52783;50.502;8.190;2022-12-05T07:31:48;2.10;99.90
66013;DHT22;52783;50.502;8.190;2022-12-05T07:34:13;2.10;99.90
66013;DHT22;52783;50.502;8.190;2022-12-05T07:36:39;2.10;99.90
66013;DHT22;52783;50.502;8.190;2022-12-05T07:39:04;2.10;99.90
66013;DHT22;52783;50.502;8.190;2022-12-05T07:41:31;2.10;99.90
66013;DHT22;52783;50.502;8.190;2022-12-05T07:43:59;2.00;99.90
66013;DHT22;52783;50.502;8.190;2022-12-05T07:46:26;2.00;99.90
66013;DHT22;52783;50.502;8.190;2022-12-05T07:48:52;2.10;99.90
66013;DHT22;52783;50.502;8.190;2022-12-05T07:51:19;2.20;99.90
66013;DHT22;52783;50.502;8.190;2022-12-05T07:53:45;2.20;99.90
66013;DHT22;52783;50.502;8.190;2022-12-05T07:56:13;2.20;99.90
66013;DHT22;52783;50.502;8.190;2022-12-05T07:58:41;2.30;99.90
66013;DHT22;52783;50.502;8.190;2022-12-05T08:01:13;2.30;99.90
66013;DHT22;52783;50.502;8.190;2022-12-05T08:03:40;2.40;99.90
66013;DHT22;52783;50.502;8.190;2022-12-05T08:06:09;2.40;99.90
66013;DHT22;52783;50.502;8.190;2022-12-05T08:08:36;2.40;99.90
66013;DHT22;52783;50.502;8.190;2022-12-05T08:11:03;2.50;99.90
66013;DHT22;52783;50.502;8.190;2022-12-05T08:13:29;2.50;99.90
66013;DHT22;52783;50.502;8.190;2022-12-05T08:15:54;2.50;99.90
66013;DHT22;52783;50.502;8.190;2022-12-05T08:18:20;2.50;99.90
66013;DHT22;52783;50.502;8.190;2022-12-05T08:20:45;2.50;99.90
66013;DHT22;52783;50.502;8.190;2022-12-05T08:23:11;2.50;99.90
66013;DHT22;52783;50.502;8.190;2022-12-05T08:25:36;2.40;99.90
66013;DHT22;52783;50.502;8.190;2022-12-05T08:28:02;2.50;99.90
66013;DHT22;52783;50.502;8.190;2022-12-05T08:30:27;2.50;99.90
66013;DHT22;52783;50.502;8.190;2022-12-05T08:32:53;2.50;99.90
66013;DHT22;52783;50.502;8.190;2022-12-05T08:35:18;2.50;99.90
66013;DHT22;52783;50.502;8.190;2022-12-05T08:37:44;2.60;99.90
66013;DHT22;52783;50.502;8.190;2022-12-05T08:40:10;2.70;99.90
66013;DHT22;52783;50.502;8.190;2022-12-05T08:42:36;2.70;99.90
66013;DHT22;52783;50.502;8.190;2022-12-05T08:45:01;2.70;99.90
66013;DHT22;52783;50.502;8.190;2022-12-05T08:47:27;2.70;99.90
66013;DHT22;52783;50.502;8.190;2022-12-05T08:49:53;2.80;99.90
66013;DHT22;52783;50.502;8.190;2022-12-05T08:52:18;2.80;99.90
66013;DHT22;52783;50.502;8.190;2022-12-05T08:54:46;2.70;99.90
66013;DHT22;52783;50.502;8.190;2022-12-05T08:57:11;2.60;99.90
66013;DHT22;52783;50.502;8.190;2022-12-05T08:59:37;2.70;99.90
66013;DHT22;52783;50.502;8.190;2022-12-05T09:02:02;2.70;99.90
66013;DHT22;52783;50.502;8.190;2022-12-05T09:04:28;2.70;99.90
66013;DHT22;52783;50.502;8.190;2022-12-05T09:06:53;2.80;99.90
66013;DHT22;52783;50.502;8.190;2022-12-05T09:09:19;2.80;99.90
66013;DHT22;52783;50.502;8.190;2022-12-05T09:11:44;2.90;99.90
66013;DHT22;52783;50.502;8.190;2022-12-05T09:14:13;2.90;99.90
66013;DHT22;52783;50.502;8.190;2022-12-05T09:16:39;2.80;99.90
66013;DHT22;52783;50.502;8.190;2022-12-05T09:19:16;2.80;99.90
66013;DHT22;52783;50.502;8.190;2022-12-05T09:21:43;2.70;99.90
66013;DHT22;52783;50.502;8.190;2022-12-05T09:24:10;2.80;99.90
66013;DHT22;52783;50.502;8.190;2022-12-05T09:26:36;2.80;99.90
66013;DHT22;52783;50.502;8.190;2022-12-05T09:29:01;2.80;99.90
66013;DHT22;52783;50.502;8.190;2022-12-05T09:31:27;2.80;99.90
66013;DHT22;52783;50.502;8.190;2022-12-05T09:33:54;2.90;99.90
66013;DHT22;52783;50.502;8.190;2022-12-05T09:36:30;2.80;99.90
66013;DHT22;52783;50.502;8.190;2022-12-05T09:39:01;2.80;99.90
66013;DHT22;52783;50.502;8.190;2022-12-05T09:49:58;2.80;99.90
66013;DHT22;52783;50.502;8.190;2022-12-05T09:55:43;2.80;99.90
66013;DHT22;52783;50.502;8.190;2022-12-05T10:00:44;2.90;99.90
66013;DHT22;52783;50.502;8.190;2022-12-05T10:03:33;3.00;99.90
66013;DHT22;52783;50.502;8.190;2022-12-05T10:06:20;3.00;99.90
66013;DHT22;52783;50.502;8.190;2022-12-05T10:09:13;3.10;99.90
66013;DHT22;52783;50.502;8.190;2022-12-05T10:17:34;3.00;99.90
66013;DHT22;52783;50.502;8.190;2022-12-05T10:20:04;3.10;99.90
66013;DHT22;52783;50.502;8.190;2022-12-05T10:22:45;3.10;99.90
66013;DHT22;52783;50.502;8.190;2022-12-05T10:25:13;3.10;99.90
66013;DHT22;52783;50.502;8.190;2022-12-05T10:27:50;3.00;99.90
66013;DHT22;52783;50.502;8.190;2022-12-05T10:30:19;3.00;99.90
66013;DHT22;52783;50.502;8.190;2022-12-05T10:32:55;3.00;99.90
66013;DHT22;52783;50.502;8.190;2022-12-05T10:35:29;3.00;99.90
66013;DHT22;52783;50.502;8.190;2022-12-05T10:37:59;3.00;99.90
66013;DHT22;52783;50.502;8.190;2022-12-05T10:40:38;3.00;99.90
66013;DHT22;52783;50.502;8.190;2022-12-05T10:43:05;3.00;99.90
66013;DHT22;52783;50.502;8.190;2022-12-05T10:45:34;3.00;99.90
66013;DHT22;52783;50.502;8.190;2022-12-05T10:48:04;3.00;99.90
66013;DHT22;52783;50.502;8.190;2022-12-05T10:50:35;3.00;99.90
66013;DHT22;52783;50.502;8.190;2022-12-05T10:53:04;3.10;99.90
66013;DHT22;52783;50.502;8.190;2022-12-05T10:55:35;3.10;99.90
66013;DHT22;52783;50.502;8.190;2022-12-05T10:58:28;3.10;99.90
66013;DHT22;52783;50.502;8.190;2022-12-05T11:00:56;3.10;99.90
66013;DHT22;52783;50.502;8.190;2022-12-05T11:05:52;3.20;99.90
66013;DHT22;52783;50.502;8.190;2022-12-05T11:08:38;3.20;99.90
66013;DHT22;52783;50.502;8.190;2022-12-05T11:11:06;3.20;99.90
66013;DHT22;52783;50.502;8.190;2022-12-05T11:13:34;3.10;99.90
66013;DHT22;52783;50.502;8.190;2022-12-05T11:16:00;3.20;99.90
66013;DHT22;52783;50.502;8.190;2022-12-05T11:18:31;3.20;99.90
66013;DHT22;52783;50.502;8.190;2022-12-05T11:21:11;3.20;99.90
66013;DHT22;52783;50.502;8.190;2022-12-05T11:23:37;3.30;99.90
66013;DHT22;52783;50.502;8.190;2022-12-05T11:26:04;3.20;99.90
66013;DHT22;52783;50.502;8.190;2022-12-05T11:28:36;3.30;99.90
66013;DHT22;52783;50.502;8.190;2022-12-05T11:31:20;3.40;99.90
66013;DHT22;52783;50.502;8.190;2022-12-05T11:34:04;3.40;99.90
66013;DHT22;52783;50.502;8.190;2022-12-05T11:36:41;3.30;99.90
66013;DHT22;52783;50.502;8.190;2022-12-05T11:39:10;3.40;99.90
66013;DHT22;52783;50.502;8.190;2022-12-05T11:44:47;3.60;99.90
66013;DHT22;52783;50.502;8.190;2022-12-05T11:53:09;3.50;99.90
66013;DHT22;52783;50.502;8.190;2022-12-05T11:56:07;3.50;99.90
66013;DHT22;52783;50.502;8.190;2022-12-05T12:07:48;3.60;99.90
66013;DHT22;52783;50.502;8.190;2022-12-05T12:21:28;3.50;99.90
66013;DHT22;52783;50.502;8.190;2022-12-05T12:32:17;3.50;99.90
66013;DHT22;52783;50.502;8.190;2022-12-05T12:35:14;3.50;99.90
66013;DHT22;52783;50.502;8.190;2022-12-05T12:38:05;3.50;99.90
66013;DHT22;52783;50.502;8.190;2022-12-05T12:40:47;3.50;99.90
66013;DHT22;52783;50.502;8.190;2022-12-05T12:43:37;3.50;99.90
66013;DHT22;52783;50.502;8.190;2022-12-05T12:51:53;3.40;99.90
66013;DHT22;52783;50.502;8.190;2022-12-05T12:54:42;3.40;99.90
66013;DHT22;52783;50.502;8.190;2022-12-05T13:03:06;3.40;99.90
66013;DHT22;52783;50.502;8.190;2022-12-05T13:05:43;3.30;99.90
66013;DHT22;52783;50.502;8.190;2022-12-05T13:08:15;3.40;99.90
66013;DHT22;52783;50.502;8.190;2022-12-05T13:10:45;3.40;99.90
66013;DHT22;52783;50.502;8.190;2022-12-05T13:13:17;3.30;99.90
66013;DHT22;52783;50.502;8.190;2022-12-05T13:15:49;3.40;99.90
66013;DHT22;52783;50.502;8.190;2022-12-05T13:18:18;3.40;99.90
66013;DHT22;52783;50.502;8.190;2022-12-05T13:20:46;3.40;99.90
66013;DHT22;52783;50.502;8.190;2022-12-05T13:23:19;3.40;99.90
66013;DHT22;52783;50.502;8.190;2022-12-05T13:25:46;3.40;99.90
66013;DHT22;52783;50.502;8.190;2022-12-05T13:30:48;3.40;99.90
66013;DHT22;52783;50.502;8.190;2022-12-05T13:36:08;3.60;99.90
66013;DHT22;52783;50.502;8.190;2022-12-05T13:39:04;3.60;99.90
66013;DHT22;52783;50.502;8.190;2022-12-05T13:41:51;3.60;99.90
66013;DHT22;52783;50.502;8.190;2022-12-05T13:44:39;3.50;99.90
66013;DHT22;52783;50.502;8.190;2022-12-05T13:47:16;3.50;99.90
66013;DHT22;52783;50.502;8.190;2022-12-05T13:49:49;3.50;99.90
66013;DHT22;52783;50.502;8.190;2022-12-05T13:52:22;3.60;99.90
66013;DHT22;52783;50.502;8.190;2022-12-05T13:57:55;3.60;99.90
66013;DHT22;52783;50.502;8.190;2022-12-05T14:00:22;3.60;99.90
66013;DHT22;52783;50.502;8.190;2022-12-05T14:02:50;3.60;99.90
66013;DHT22;52783;50.502;8.190;2022-12-05T14:15:46;3.60;99.90
66013;DHT22;52783;50.502;8.190;2022-12-05T14:29:06;3.60;99.90
66013;DHT22;52783;50.502;8.190;2022-12-05T14:32:11;3.60;99.90
66013;DHT22;52783;50.502;8.190;2022-12-05T14:35:00;3.60;99.90
66013;DHT22;52783;50.502;8.190;2022-12-05T14:37:38;3.60;99.90
66013;DHT22;52783;50.502;8.190;2022-12-05T14:40:25;3.60;99.90
66013;DHT22;52783;50.502;8.190;2022-12-05T14:48:28;3.60;99.90
66013;DHT22;52783;50.502;8.190;2022-12-05T14:50:55;3.40;99.90
66013;DHT22;52783;50.502;8.190;2022-12-05T15:01:17;3.50;99.90
66013;DHT22;52783;50.502;8.190;2022-12-05T15:04:08;3.50;99.90
66013;DHT22;52783;50.502;8.190;2022-12-05T15:06:54;3.50;99.90
66013;DHT22;52783;50.502;8.190;2022-12-05T15:12:10;3.40;99.90
66013;DHT22;52783;50.502;8.190;2022-12-05T15:14:44;3.40;99.90
66013;DHT22;52783;50.502;8.190;2022-12-05T15:17:15;3.40;99.90
66013;DHT22;52783;50.502;8.190;2022-12-05T15:19:57;3.40;99.90
66013;DHT22;52783;50.502;8.190;2022-12-05T15:22:25;3.40;99.90
66013;DHT22;52783;50.502;8.190;2022-12-05T15:24:52;3.30;99.90
66013;DHT22;52783;50.502;8.190;2022-12-05T15:27:18;3.30;99.90
66013;DHT22;52783;50.502;8.190;2022-12-05T15:29:44;3.40;99.90
66013;DHT22;52783;50.502;8.190;2022-12-05T15:34:45;3.40;99.90
66013;DHT22;52783;50.502;8.190;2022-12-05T15:37:33;3.40;99.90
66013;DHT22;52783;50.502;8.190;2022-12-05T15:40:08;3.40;99.90
66013;DHT22;52783;50.502;8.190;2022-12-05T15:42:46;3.40;99.90
66013;DHT22;52783;50.502;8.190;2022-12-05T15:47:52;3.40;99.90
66013;DHT22;52783;50.502;8.190;2022-12-05T15:50:36;3.50;99.90
66013;DHT22;52783;50.502;8.190;2022-12-05T15:53:13;3.40;99.90
66013;DHT22;52783;50.502;8.190;2022-12-05T15:56:05;3.50;99.90
66013;DHT22;52783;50.502;8.190;2022-12-05T15:58:42;3.50;99.90
66013;DHT22;52783;50.502;8.190;2022-12-05T16:06:43;3.40;99.90
66013;DHT22;52783;50.502;8.190;2022-12-05T16:09:24;3.40;99.90
66013;DHT22;52783;50.502;8.190;2022-12-05T16:11:54;3.50;99.90
66013;DHT22;52783;50.502;8.190;2022-12-05T16:14:22;3.40;99.90
66013;DHT22;52783;50.502;8.190;2022-12-05T16:16:49;3.40;99.90
66013;DHT22;52783;50.502;8.190;2022-12-05T16:19:21;3.50;99.90
66013;DHT22;52783;50.502;8.190;2022-12-05T16:22:15;3.50;99.90
66013;DHT22;52783;50.502;8.190;2022-12-05T16:24:44;3.50;99.90
66013;DHT22;52783;50.502;8.190;2022-12-05T16:27:23;3.50;99.90
66013;DHT22;52783;50.502;8.190;2022-12-05T16:32:36;3.40;99.90
66013;DHT22;52783;50.502;8.190;2022-12-05T16:35:03;3.50;99.90
66013;DHT22;52783;50.502;8.190;2022-12-05T16:37:29;3.50;99.90
66013;DHT22;52783;50.502;8.190;2022-12-05T16:39:55;3.50;99.90
66013;DHT22;52783;50.502;8.190;2022-12-05T16:42:25;3.60;99.90
66013;DHT22;52783;50.502;8.190;2022-12-05T16:44:59;3.60;99.90
66013;DHT22;52783;50.502;8.190;2022-12-05T16:52:46;3.40;99.90
66013;DHT22;52783;50.502;8.190;2022-12-05T16:55:11;3.30;99.90
66013;DHT22;52783;50.502;8.190;2022-12-05T16:57:38;3.40;99.90
66013;DHT22;52783;50.502;8.190;2022-12-05T17:00:05;3.40;99.90
66013;DHT22;52783;50.502;8.190;2022-12-05T17:02:31;3.40;99.90
66013;DHT22;52783;50.502;8.190;2022-12-05T17:04:58;3.40;99.90
66013;DHT22;52783;50.502;8.190;2022-12-05T17:07:26;3.40;99.90
66013;DHT22;52783;50.502;8.190;2022-12-05T17:09:52;3.40;99.90
66013;DHT22;52783;50.502;8.190;2022-12-05T17:12:21;3.40;99.90
66013;DHT22;52783;50.502;8.190;2022-12-05T17:14:48;3.40;99.90
66013;DHT22;52783;50.502;8.190;2022-12-05T17:17:14;3.40;99.90
66013;DHT22;52783;50.502;8.190;2022-12-05T17:19:43;3.40;99.90
66013;DHT22;52783;50.502;8.190;2022-12-05T17:22:11;3.50;99.90
66013;DHT22;52783;50.502;8.190;2022-12-05T17:24:36;3.40;99.90
66013;DHT22;52783;50.502;8.190;2022-12-05T17:27:04;3.40;99.90
66013;DHT22;52783;50.502;8.190;2022-12-05T17:29:30;3.50;99.90
66013;DHT22;52783;50.502;8.190;2022-12-05T17:31:55;3.40;99.90
66013;DHT22;52783;50.502;8.190;2022-12-05T17:34:21;3.40;99.90
66013;DHT22;52783;50.502;8.190;2022-12-05T17:36:47;3.50;99.90
66013;DHT22;52783;50.502;8.190;2022-12-05T17:39:12;3.50;99.90
66013;DHT22;52783;50.502;8.190;2022-12-05T17:41:38;3.50;99.90
66013;DHT22;52783;50.502;8.190;2022-12-05T17:44:04;3.50;99.90
66013;DHT22;52783;50.502;8.190;2022-12-05T17:46:30;3.50;99.90
66013;DHT22;52783;50.502;8.190;2022-12-05T17:48:56;3.50;99.90
66013;DHT22;52783;50.502;8.190;2022-12-05T17:51:22;3.50;99.90
66013;DHT22;52783;50.502;8.190;2022-12-05T17:53:48;3.50;99.90
66013;DHT22;52783;50.502;8.190;2022-12-05T17:56:14;3.50;99.90
66013;DHT22;52783;50.502;8.190;2022-12-05T17:58:41;3.50;99.90
66013;DHT22;52783;50.502;8.190;2022-12-05T18:01:16;3.40;99.90
66013;DHT22;52783;50.502;8.190;2022-12-05T18:03:42;3.40;99.90
66013;DHT22;52783;50.502;8.190;2022-12-05T18:06:08;3.50;99.90
66013;DHT22;52783;50.502;8.190;2022-12-05T18:08:34;3.30;99.90
66013;DHT22;52783;50.502;8.190;2022-12-05T18:11:05;3.40;99.90
66013;DHT22;52783;50.502;8.190;2022-12-05T18:13:33;3.40;99.90
66013;DHT22;52783;50.502;8.190;2022-12-05T18:15:58;3.40;99.90
66013;DHT22;52783;50.502;8.190;2022-12-05T18:18:27;3.30;99.90
66013;DHT22;52783;50.502;8.190;2022-12-05T18:21:08;3.40;99.90
66013;DHT22;52783;50.502;8.190;2022-12-05T18:23:35;3.40;99.90
66013;DHT22;52783;50.502;8.190;2022-12-05T18:26:01;3.40;99.90
66013;DHT22;52783;50.502;8.190;2022-12-05T18:28:27;3.40;99.90
66013;DHT22;52783;50.502;8.190;2022-12-05T18:33:28;3.40;99.90
66013;DHT22;52783;50.502;8.190;2022-12-05T18:35:54;3.40;99.90
66013;DHT22;52783;50.502;8.190;2022-12-05T18:38:19;3.40;99.90
66013;DHT22;52783;50.502;8.190;2022-12-05T18:40:45;3.40;99.90
66013;DHT22;52783;50.502;8.190;2022-12-05T18:43:10;3.40;99.90
66013;DHT22;52783;50.502;8.190;2022-12-05T18:45:36;3.40;99.90
66013;DHT22;52783;50.502;8.190;2022-12-05T18:48:02;3.40;99.90
66013;DHT22;52783;50.502;8.190;2022-12-05T18:50:28;3.40;99.90
66013;DHT22;52783;50.502;8.190;2022-12-05T18:52:53;3.50;99.90
66013;DHT22;52783;50.502;8.190;2022-12-05T18:55:19;3.50;99.90